Time;durP1;ratioP1;P1;durP2;ratioP2;P2;SDS_P1;SDS_P2;PMS_P1;PMS_P2;Temp;Humidity;BMP_temperature;BMP_pressure;BME280_temperature;BME280_humidity;BME280_pressure;Samples;Min_cycle;Max_cycle;Signal;HPM_P1;HPM_P2
2022/11/26 00:02:39;;;;;;;118.50;52.27;;;;;;;3.66;100.00;99389.33;2302502;77;21451;-59
2022/11/26 00:05:40;;;;;;;125.47;52.78;;;;;;;3.76;100.00;99397.30;2295205;77;21039;-58
2022/11/26 00:08:41;;;;;;;127.95;56.15;;;;;;;3.53;100.00;99390.91;2299745;77;20996;-59
2022/11/26 00:11:41;;;;;;;114.72;52.43;;;;;;;3.43;100.00;99400.66;2291509;77;20992;-59
2022/11/26 00:14:42;;;;;;;122.37;56.40;;;;;;;3.29;100.00;99403.55;2300972;77;20980;-58
2022/11/26 00:17:43;;;;;;;116.17;53.33;;;;;;;3.34;100.00;99395.66;2299222;77;21007;-58
2022/11/26 00:20:43;;;;;;;113.32;52.48;;;;;;;3.34;100.00;99398.71;2297085;77;21534;-58
2022/11/26 00:23:44;;;;;;;118.00;56.28;;;;;;;3.48;100.00;99397.95;2301355;77;21518;-58
2022/11/26 00:26:44;;;;;;;121.87;54.10;;;;;;;3.47;100.00;99404.02;2293859;77;21049;-58
2022/11/26 00:29:45;;;;;;;120.17;53.45;;;;;;;3.50;100.00;99407.84;2298320;77;20980;-59
2022/11/26 00:32:45;;;;;;;112.47;51.48;;;;;;;3.52;100.00;99418.17;2307850;77;21008;-59
2022/11/26 00:35:46;;;;;;;110.15;49.13;;;;;;;3.50;100.00;99420.80;2302820;77;20936;-58
2022/11/26 00:38:46;;;;;;;105.35;48.38;;;;;;;3.45;100.00;99420.92;2288911;77;21399;-58
2022/11/26 00:41:47;;;;;;;103.30;47.20;;;;;;;3.57;100.00;99422.83;2295984;77;20952;-58
2022/11/26 00:44:47;;;;;;;108.60;49.65;;;;;;;3.53;100.00;99427.67;2302375;77;20956;-58
2022/11/26 00:47:48;;;;;;;110.65;50.58;;;;;;;3.44;100.00;99428.28;2299532;77;21012;-58
2022/11/26 00:50:48;;;;;;;106.95;50.78;;;;;;;3.63;100.00;99427.86;2297699;77;21014;-58
2022/11/26 00:53:49;;;;;;;112.17;51.58;;;;;;;3.91;100.00;99429.83;2293423;77;21033;-58
2022/11/26 00:56:49;;;;;;;118.05;51.77;;;;;;;3.67;100.00;99429.50;2302511;77;21000;-59
2022/11/26 00:59:50;;;;;;;110.55;50.05;;;;;;;3.62;100.00;99430.91;2297687;77;20997;-58
2022/11/26 01:02:50;;;;;;;102.17;47.50;;;;;;;3.57;100.00;99434.05;2300657;77;21493;-58
2022/11/26 01:05:51;;;;;;;104.20;47.65;;;;;;;3.49;100.00;99436.41;2297494;77;21066;-58
2022/11/26 01:08:51;;;;;;;103.97;47.65;;;;;;;3.60;100.00;99433.12;2301783;77;20992;-58
2022/11/26 01:11:52;;;;;;;106.97;49.25;;;;;;;3.61;100.00;99445.22;2298242;77;20986;-58
2022/11/26 01:14:53;;;;;;;106.52;48.95;;;;;;;3.72;100.00;99441.06;2300829;77;21047;-59
2022/11/26 01:17:53;;;;;;;109.20;48.35;;;;;;;3.74;100.00;99441.45;2293790;77;21007;-58
2022/11/26 01:20:54;;;;;;;105.65;48.70;;;;;;;3.73;100.00;99442.33;2302581;77;20972;-58
2022/11/26 01:23:54;;;;;;;114.15;49.67;;;;;;;3.76;100.00;99438.36;2302442;77;21036;-59
2022/11/26 01:26:55;;;;;;;110.95;49.75;;;;;;;3.75;100.00;99440.56;2302876;77;21455;-59
2022/11/26 01:29:55;;;;;;;104.75;46.08;;;;;;;3.76;100.00;99440.11;2302311;77;21039;-58
2022/11/26 01:32:55;;;;;;;101.00;46.58;;;;;;;3.68;100.00;99441.59;2298434;77;20980;-58
2022/11/26 01:35:56;;;;;;;103.50;47.08;;;;;;;3.58;100.00;99436.22;2303807;77;20980;-58
2022/11/26 01:38:57;;;;;;;98.05;44.70;;;;;;;3.44;100.00;99437.81;2297975;77;20981;-58
2022/11/26 01:41:57;;;;;;;99.15;45.92;;;;;;;3.54;100.00;99439.77;2305914;77;20959;-59
2022/11/26 01:44:57;;;;;;;96.45;45.40;;;;;;;3.56;100.00;99439.27;2300257;77;21486;-58
2022/11/26 01:47:58;;;;;;;101.40;46.85;;;;;;;3.61;100.00;99436.98;2296596;77;20975;-59
2022/11/26 01:50:58;;;;;;;107.43;50.58;;;;;;;3.60;100.00;99448.23;2302271;77;20980;-58
2022/11/26 01:53:59;;;;;;;105.67;49.23;;;;;;;3.73;100.00;99446.22;2297408;77;21003;-59
2022/11/26 01:56:59;;;;;;;104.00;48.02;;;;;;;3.80;100.00;99442.59;2302459;77;20937;-58
2022/11/26 02:00:00;;;;;;;100.55;46.33;;;;;;;3.65;100.00;99440.38;2303725;77;21472;-59
2022/11/26 02:03:00;;;;;;;100.40;45.00;;;;;;;3.62;100.00;99450.80;2287903;77;20984;-58
2022/11/26 02:06:01;;;;;;;104.95;47.15;;;;;;;3.70;100.00;99445.45;2298760;77;21042;-58
2022/11/26 02:09:01;;;;;;;101.85;48.63;;;;;;;3.57;100.00;99435.80;2302703;77;20979;-58
2022/11/26 02:12:02;;;;;;;101.33;46.68;;;;;;;3.46;100.00;99444.67;2288431;77;21030;-58
2022/11/26 02:15:02;;;;;;;113.32;47.25;;;;;;;3.42;100.00;99444.33;2297657;77;20991;-58
2022/11/26 02:18:03;;;;;;;104.67;47.03;;;;;;;3.44;100.00;99440.41;2302319;77;21517;-58
2022/11/26 02:21:03;;;;;;;94.03;44.20;;;;;;;3.45;100.00;99448.15;2292993;77;21690;-59
2022/11/26 02:24:03;;;;;;;107.45;47.27;;;;;;;3.52;100.00;99442.81;2302714;77;20926;-59
2022/11/26 02:27:04;;;;;;;100.05;44.83;;;;;;;3.51;100.00;99445.02;2292836;77;20955;-58
2022/11/26 02:30:05;;;;;;;94.42;43.95;;;;;;;3.46;100.00;99456.77;2288017;77;20971;-58
2022/11/26 02:33:05;;;;;;;101.62;45.43;;;;;;;3.43;100.00;99456.42;2305442;77;21053;-59
2022/11/26 02:36:06;;;;;;;94.60;45.92;;;;;;;3.44;100.00;99458.56;2297235;77;21431;-58
2022/11/26 02:39:06;;;;;;;99.13;46.40;;;;;;;3.47;100.00;99450.70;2301923;77;21027;-59
2022/11/26 02:42:07;;;;;;;94.05;45.15;;;;;;;3.49;100.00;99451.52;2301979;77;21007;-58
2022/11/26 02:45:07;;;;;;;102.53;45.05;;;;;;;3.59;100.00;99453.47;2291770;77;20945;-58
2022/11/26 02:48:08;;;;;;;94.97;43.35;;;;;;;3.54;100.00;99454.03;2294900;77;20968;-59
2022/11/26 02:51:08;;;;;;;97.35;45.23;;;;;;;3.44;100.00;99458.11;2304179;77;20994;-58
2022/11/26 02:54:09;;;;;;;90.30;42.13;;;;;;;3.51;100.00;99449.75;2286649;77;21450;-58
2022/11/26 02:57:09;;;;;;;87.33;40.20;;;;;;;3.37;100.00;99453.94;2301583;77;20941;-59
2022/11/26 03:00:10;;;;;;;89.07;41.28;;;;;;;3.28;100.00;99454.98;2297191;77;21246;-58
2022/11/26 03:03:10;;;;;;;86.05;41.55;;;;;;;3.30;100.00;99448.47;2299188;77;21067;-58
2022/11/26 03:06:11;;;;;;;89.77;43.05;;;;;;;3.43;100.00;99448.64;2297771;77;20964;-58
2022/11/26 03:09:11;;;;;;;89.05;39.67;;;;;;;3.58;100.00;99451.78;2299217;77;21443;-58
2022/11/26 03:12:12;;;;;;;86.55;40.12;;;;;;;3.46;100.00;99456.34;2305451;77;21020;-58
2022/11/26 03:15:12;;;;;;;91.47;40.75;;;;;;;3.54;100.00;99454.88;2298709;77;20983;-58
2022/11/26 03:18:13;;;;;;;91.67;41.80;;;;;;;3.39;100.00;99461.68;2310280;77;20952;-58
2022/11/26 03:21:13;;;;;;;93.12;41.13;;;;;;;3.41;100.00;99455.58;2299298;77;20992;-58
2022/11/26 03:24:13;;;;;;;88.92;40.55;;;;;;;3.29;100.00;99459.75;2309132;77;20957;-59
2022/11/26 03:27:14;;;;;;;85.35;40.28;;;;;;;3.39;100.00;99470.34;2293182;77;21475;-58
2022/11/26 03:30:14;;;;;;;86.55;40.38;;;;;;;3.40;100.00;99465.53;2286656;77;20976;-58
2022/11/26 03:33:15;;;;;;;83.92;39.92;;;;;;;3.40;100.00;99460.80;2287271;77;21023;-58
2022/11/26 03:36:15;;;;;;;86.15;40.52;;;;;;;3.55;100.00;99468.27;2304496;77;20960;-58
2022/11/26 03:39:15;;;;;;;86.97;41.95;;;;;;;3.47;100.00;99461.92;2299814;77;21003;-58
2022/11/26 03:42:16;;;;;;;87.60;41.15;;;;;;;3.44;100.00;99461.16;2307070;77;20996;-58
2022/11/26 03:45:16;;;;;;;86.67;40.70;;;;;;;3.39;100.00;99462.55;2301051;77;21495;-58
2022/11/26 03:48:17;;;;;;;86.17;40.08;;;;;;;3.34;100.00;99459.65;2288394;77;20992;-58
2022/11/26 03:51:17;;;;;;;89.50;38.80;;;;;;;3.40;100.00;99448.68;2292206;77;20980;-58
2022/11/26 03:54:18;;;;;;;82.20;39.78;;;;;;;3.34;100.00;99441.05;2288330;77;20957;-58
2022/11/26 03:57:19;;;;;;;81.10;39.90;;;;;;;3.44;100.00;99441.25;2296758;77;20964;-58
2022/11/26 04:00:19;;;;;;;84.62;39.30;;;;;;;3.49;100.00;99463.64;2297751;77;20980;-59
2022/11/26 04:03:20;;;;;;;91.70;41.75;;;;;;;3.42;100.00;99476.75;2302533;77;21348;-58
2022/11/26 04:06:20;;;;;;;90.07;42.15;;;;;;;3.31;100.00;99485.19;2275489;77;21166;-59
2022/11/26 04:09:21;;;;;;;88.97;44.00;;;;;;;3.28;100.00;99480.08;2290846;77;21024;-58
2022/11/26 04:12:21;;;;;;;90.05;42.95;;;;;;;3.29;100.00;99480.05;2296986;77;20969;-59
2022/11/26 04:15:22;;;;;;;85.17;40.88;;;;;;;3.31;100.00;99488.24;2276344;77;21016;-59
2022/11/26 04:18:22;;;;;;;84.92;39.67;;;;;;;3.43;100.00;99487.55;2296611;77;21451;-59
2022/11/26 04:21:23;;;;;;;95.12;43.80;;;;;;;3.46;100.00;99488.77;2278501;77;21490;-58
2022/11/26 04:24:23;;;;;;;93.67;42.60;;;;;;;3.51;100.00;99493.02;2286444;77;21505;-59
2022/11/26 04:27:24;;;;;;;83.52;39.30;;;;;;;3.55;100.00;99494.20;2289206;77;21542;-59
2022/11/26 04:30:24;;;;;;;81.40;40.43;;;;;;;3.41;100.00;99496.23;2265977;78;20973;-59
2022/11/26 04:33:26;;;;;;;93.72;46.15;;;;;;;3.38;100.00;99502.34;2270887;77;21075;-58
2022/11/26 04:36:26;;;;;;;92.40;45.43;;;;;;;3.42;100.00;99500.52;2288868;77;20989;-59
2022/11/26 04:39:27;;;;;;;101.18;46.05;;;;;;;3.54;100.00;99499.42;2271015;77;21499;-58
2022/11/26 04:42:27;;;;;;;95.15;44.42;;;;;;;3.55;100.00;99509.77;2263312;77;21004;-59
2022/11/26 04:45:28;;;;;;;89.07;40.60;;;;;;;3.35;100.00;99515.79;2285186;77;20977;-58
2022/11/26 04:48:28;;;;;;;88.85;40.58;;;;;;;3.32;100.00;99520.63;2274551;77;21071;-59
2022/11/26 04:51:29;;;;;;;83.45;39.35;;;;;;;3.28;100.00;99514.63;2247006;78;20999;-59
2022/11/26 04:54:29;;;;;;;90.15;41.05;;;;;;;3.28;100.00;99519.81;2263342;77;21482;-58
2022/11/26 04:57:29;;;;;;;91.90;43.45;;;;;;;3.30;100.00;99524.97;2282474;77;21509;-59
2022/11/26 05:00:30;;;;;;;89.35;41.25;;;;;;;3.50;100.00;99527.16;2287520;77;20985;-58
2022/11/26 05:03:30;;;;;;;86.20;40.40;;;;;;;3.41;100.00;99539.03;2287568;77;20945;-58
2022/11/26 05:06:31;;;;;;;89.40;42.88;;;;;;;3.43;100.00;99544.60;2285783;77;21008;-59
2022/11/26 05:09:31;;;;;;;91.75;41.37;;;;;;;3.42;100.00;99542.88;2287752;77;21037;-58
2022/11/26 05:12:32;;;;;;;90.28;40.95;;;;;;;3.33;100.00;99539.16;2284933;77;21408;-58
2022/11/26 05:15:32;;;;;;;110.22;45.33;;;;;;;3.18;100.00;99550.70;2256757;78;21571;-58
2022/11/26 05:18:33;;;;;;;107.20;46.55;;;;;;;2.98;100.00;99558.01;2286523;77;20973;-58
2022/11/26 05:21:33;;;;;;;88.35;41.20;;;;;;;3.03;100.00;99551.86;2272933;77;21073;-58
2022/11/26 05:24:34;;;;;;;93.67;42.67;;;;;;;3.09;100.00;99552.19;2289430;77;21027;-58
2022/11/26 05:27:34;;;;;;;103.83;44.90;;;;;;;3.14;100.00;99555.53;2264358;77;21008;-59
2022/11/26 05:30:34;;;;;;;92.17;42.23;;;;;;;3.29;100.00;99565.61;2266190;77;21444;-58
2022/11/26 05:33:35;;;;;;;100.95;44.85;;;;;;;3.41;100.00;99552.00;2284998;77;21424;-58
2022/11/26 05:36:35;;;;;;;101.05;48.40;;;;;;;3.24;100.00;99560.95;2285715;77;20950;-58
2022/11/26 05:39:36;;;;;;;96.85;43.23;;;;;;;3.18;100.00;99569.30;2280262;77;21025;-58
2022/11/26 05:42:36;;;;;;;96.32;45.43;;;;;;;3.16;100.00;99566.74;2276885;77;20953;-58
2022/11/26 05:45:37;;;;;;;100.02;46.60;;;;;;;3.11;100.00;99568.09;2276618;77;21041;-58
2022/11/26 05:48:37;;;;;;;97.97;44.48;;;;;;;3.23;100.00;99572.64;2252878;78;20980;-58
2022/11/26 05:51:37;;;;;;;100.38;44.90;;;;;;;3.12;100.00;99569.81;2268072;77;21515;-58
2022/11/26 05:54:38;;;;;;;102.12;49.42;;;;;;;3.31;100.00;99575.11;2275323;77;21068;-59
2022/11/26 05:57:39;;;;;;;102.65;46.77;;;;;;;3.38;100.00;99571.06;2269319;77;20984;-59
2022/11/26 06:00:39;;;;;;;93.65;44.42;;;;;;;3.45;100.00;99574.39;2261098;77;20983;-58
2022/11/26 06:03:40;;;;;;;92.17;43.15;;;;;;;3.44;100.00;99567.04;2280413;77;21036;-59
2022/11/26 06:06:41;;;;;;;86.05;41.33;;;;;;;3.25;100.00;99586.00;2286906;78;21032;-58
2022/11/26 06:09:41;;;;;;;99.58;44.18;;;;;;;3.23;100.00;99580.42;2281445;77;21020;-59
2022/11/26 06:12:42;;;;;;;95.87;44.03;;;;;;;3.14;100.00;99585.34;2264816;78;21045;-58
2022/11/26 06:15:42;;;;;;;95.45;41.20;;;;;;;3.15;100.00;99590.95;2266582;77;20988;-59
2022/11/26 06:18:43;;;;;;;94.15;43.63;;;;;;;3.19;100.00;99595.20;2275838;77;21011;-59
2022/11/26 06:21:43;;;;;;;91.40;43.65;;;;;;;3.17;100.00;99602.13;2264411;78;20973;-59
2022/11/26 06:24:43;;;;;;;97.82;45.88;;;;;;;3.21;100.00;99600.35;2259289;77;22016;-58
2022/11/26 06:27:44;;;;;;;99.65;46.25;;;;;;;3.31;100.00;99598.45;2280249;77;20999;-58
2022/11/26 06:30:44;;;;;;;101.92;47.88;;;;;;;3.42;100.00;99590.86;2263368;78;21019;-59
2022/11/26 06:33:45;;;;;;;95.12;46.20;;;;;;;3.37;100.00;99600.91;2278330;77;20973;-60
2022/11/26 06:36:45;;;;;;;89.55;42.40;;;;;;;3.39;100.00;99606.91;2261822;78;21049;-58
2022/11/26 06:39:46;;;;;;;90.55;42.70;;;;;;;3.35;100.00;99600.07;2281818;77;21035;-59
2022/11/26 06:42:46;;;;;;;97.20;43.63;;;;;;;3.43;100.00;99605.55;2283877;78;21570;-59
2022/11/26 06:45:47;;;;;;;95.15;44.80;;;;;;;3.50;100.00;99608.86;2279971;78;22227;-58
2022/11/26 06:48:47;;;;;;;88.40;43.33;;;;;;;3.64;100.00;99604.70;2280319;77;21092;-59
2022/11/26 06:51:47;;;;;;;85.00;42.43;;;;;;;3.63;100.00;99605.16;2272281;77;20999;-59
2022/11/26 06:54:48;;;;;;;94.25;44.63;;;;;;;3.34;100.00;99607.46;2268794;77;21068;-59
2022/11/26 06:57:49;;;;;;;91.35;43.05;;;;;;;3.39;100.00;99603.90;2286841;77;21068;-58
2022/11/26 07:00:49;;;;;;;94.52;44.13;;;;;;;3.53;100.00;99611.84;2270172;77;21495;-59
2022/11/26 07:03:50;;;;;;;87.08;41.20;;;;;;;3.53;100.00;99613.98;2283456;77;21017;-58
2022/11/26 07:06:50;;;;;;;87.42;43.83;;;;;;;3.59;100.00;99616.48;2286988;77;21020;-59
2022/11/26 07:09:51;;;;;;;88.62;42.55;;;;;;;3.62;100.00;99616.41;2279347;77;21562;-58
2022/11/26 07:12:51;;;;;;;84.90;41.75;;;;;;;3.83;100.00;99624.64;2284180;77;20997;-59
2022/11/26 07:15:51;;;;;;;74.00;38.02;;;;;;;3.94;100.00;99625.27;2287760;77;21044;-58
2022/11/26 07:18:52;;;;;;;83.80;42.27;;;;;;;4.09;100.00;99637.06;2280416;77;21015;-58
2022/11/26 07:21:53;;;;;;;78.22;41.70;;;;;;;4.05;100.00;99640.64;2266992;77;20973;-58
2022/11/26 07:24:53;;;;;;;87.80;43.98;;;;;;;4.21;100.00;99645.05;2254013;77;20992;-59
2022/11/26 07:27:54;;;;;;;102.47;52.88;;;;;;;4.36;100.00;99646.44;2256324;78;21420;-58
2022/11/26 07:30:54;;;;;;;113.25;57.98;;;;;;;4.37;100.00;99652.48;2257941;78;20973;-60
2022/11/26 07:33:55;;;;;;;111.37;55.35;;;;;;;4.58;100.00;99649.84;2258632;77;20992;-58
2022/11/26 07:36:55;;;;;;;107.78;55.38;;;;;;;4.60;100.00;99648.09;2272449;77;20973;-58
2022/11/26 07:39:56;;;;;;;110.08;56.45;;;;;;;4.57;100.00;99640.34;2282632;77;21107;-58
2022/11/26 07:42:56;;;;;;;98.03;50.30;;;;;;;4.77;100.00;99638.14;2280178;77;21088;-59
2022/11/26 07:45:57;;;;;;;94.10;49.55;;;;;;;5.03;100.00;99634.04;2274805;78;21467;-59
2022/11/26 07:48:57;;;;;;;98.30;48.90;;;;;;;5.28;100.00;99632.09;2269433;77;21032;-59
2022/11/26 07:51:58;;;;;;;102.92;55.78;;;;;;;5.43;100.00;99648.61;2275390;78;21036;-58
2022/11/26 07:54:58;;;;;;;110.72;57.73;;;;;;;5.42;100.00;99652.09;2281828;77;21079;-59
2022/11/26 07:57:59;;;;;;;102.58;55.48;;;;;;;5.44;100.00;99654.66;2266475;77;20996;-59
2022/11/26 08:00:59;;;;;;;96.63;51.00;;;;;;;5.49;100.00;99660.14;2268163;77;21033;-59
2022/11/26 08:04:00;;;;;;;93.55;49.42;;;;;;;5.54;100.00;99657.41;2268392;77;21021;-59
2022/11/26 08:07:00;;;;;;;90.77;48.25;;;;;;;5.69;100.00;99656.16;2276858;77;21012;-58
2022/11/26 08:10:01;;;;;;;91.67;47.35;;;;;;;5.71;100.00;99655.66;2279997;77;21489;-59
2022/11/26 08:13:01;;;;;;;88.35;47.48;;;;;;;5.81;100.00;99664.91;2265459;77;21588;-59
2022/11/26 08:16:02;;;;;;;88.40;48.23;;;;;;;5.85;100.00;99666.53;2289227;77;21025;-59
2022/11/26 08:19:02;;;;;;;92.92;50.58;;;;;;;5.90;100.00;99669.88;2286524;77;21037;-59
2022/11/26 08:22:03;;;;;;;87.88;45.70;;;;;;;6.15;100.00;99673.53;2264613;77;21004;-58
2022/11/26 08:25:03;;;;;;;85.95;44.95;;;;;;;5.71;100.00;99681.22;2279351;77;20972;-59
2022/11/26 08:28:04;;;;;;;83.78;44.27;;;;;;;5.73;100.00;99679.45;2264655;77;21020;-59
2022/11/26 08:31:04;;;;;;;79.07;41.33;;;;;;;5.65;100.00;99676.66;2274008;78;21436;-59
2022/11/26 08:34:04;;;;;;;81.60;43.10;;;;;;;5.69;100.00;99677.83;2279823;77;21096;-60
2022/11/26 08:37:05;;;;;;;83.87;44.23;;;;;;;5.51;100.00;99679.16;2285701;77;21011;-59
2022/11/26 08:40:05;;;;;;;81.28;44.90;;;;;;;5.98;100.00;99679.25;2276006;77;21049;-59
2022/11/26 08:43:06;;;;;;;86.00;46.00;;;;;;;6.25;100.00;99674.99;2281153;77;20973;-59
2022/11/26 08:46:06;;;;;;;83.52;45.03;;;;;;;6.43;100.00;99681.39;2284721;77;21068;-59
2022/11/26 08:49:07;;;;;;;91.35;47.67;;;;;;;6.55;100.00;99680.15;2277138;77;21484;-59
2022/11/26 08:52:07;;;;;;;96.55;50.40;;;;;;;6.58;100.00;99689.20;2286805;77;21515;-59
2022/11/26 08:55:07;;;;;;;100.50;53.33;;;;;;;6.47;100.00;99686.91;2258027;78;21110;-58
2022/11/26 08:58:08;;;;;;;101.47;56.53;;;;;;;6.52;100.00;99682.85;2264071;77;21032;-59
2022/11/26 09:01:08;;;;;;;97.75;51.83;;;;;;;6.47;100.00;99690.82;2280337;78;21009;-59
2022/11/26 09:04:09;;;;;;;92.55;47.20;;;;;;;6.55;100.00;99687.97;2284675;77;21061;-59
2022/11/26 09:07:10;;;;;;;104.63;50.92;;;;;;;6.69;100.00;99688.86;2283046;77;21024;-59
2022/11/26 09:10:13;;;;;;;87.37;44.40;;;;;;;6.65;100.00;99682.91;2282324;77;21582;-58
2022/11/26 09:13:14;;;;;;;83.87;44.85;;;;;;;6.65;100.00;99688.55;2256175;77;21056;-58
2022/11/26 09:16:14;;;;;;;92.33;45.08;;;;;;;6.69;100.00;99697.98;2262531;78;21009;-59
2022/11/26 09:19:15;;;;;;;82.12;42.83;;;;;;;6.71;100.00;99694.86;2281136;77;21162;-58
2022/11/26 09:22:15;;;;;;;76.37;41.80;;;;;;;6.57;100.00;99710.48;2276295;77;21016;-58
2022/11/26 09:25:15;;;;;;;73.20;37.42;;;;;;;6.59;100.00;99712.62;2276161;77;20989;-58
2022/11/26 09:28:16;;;;;;;69.42;36.60;;;;;;;6.83;100.00;99708.83;2271625;77;21090;-58
2022/11/26 09:31:16;;;;;;;73.78;38.83;;;;;;;6.86;100.00;99719.63;2269189;77;21019;-59
2022/11/26 09:34:17;;;;;;;76.57;40.45;;;;;;;6.92;100.00;99716.81;2276376;78;21528;-58
2022/11/26 09:37:17;;;;;;;78.70;43.20;;;;;;;6.86;100.00;99717.86;2254177;78;20952;-59
2022/11/26 09:40:18;;;;;;;83.47;45.98;;;;;;;6.92;100.00;99713.77;2291117;77;20950;-59
2022/11/26 09:43:18;;;;;;;83.47;47.10;;;;;;;7.15;100.00;99717.84;2278667;77;21045;-58
2022/11/26 09:46:19;;;;;;;78.28;44.53;;;;;;;7.42;100.00;99719.52;2267055;77;21071;-58
2022/11/26 09:49:19;;;;;;;81.02;43.42;;;;;;;7.57;100.00;99719.47;2272205;77;21138;-58
2022/11/26 09:52:20;;;;;;;86.87;45.33;;;;;;;7.38;100.00;99723.59;2280596;77;21463;-58
2022/11/26 09:55:20;;;;;;;78.70;43.05;;;;;;;7.21;100.00;99720.23;2284173;77;21064;-58
2022/11/26 09:58:21;;;;;;;78.72;43.02;;;;;;;7.31;100.00;99712.95;2287630;77;21136;-59
2022/11/26 10:01:22;;;;;;;81.20;44.75;;;;;;;7.50;100.00;99719.28;2282326;77;20984;-58
2022/11/26 10:04:22;;;;;;;77.05;42.90;;;;;;;7.52;100.00;99717.45;2283774;77;21051;-58
2022/11/26 10:07:23;;;;;;;79.58;44.50;;;;;;;7.53;100.00;99719.59;2275686;77;20953;-58
2022/11/26 10:10:24;;;;;;;83.95;45.52;;;;;;;7.51;100.00;99724.88;2288446;77;21040;-59
2022/11/26 10:13:24;;;;;;;76.97;40.23;;;;;;;7.53;100.00;99725.69;2271247;77;21479;-58
2022/11/26 10:16:25;;;;;;;71.72;37.95;;;;;;;7.41;100.00;99726.97;2265526;78;21020;-58
2022/11/26 10:19:26;;;;;;;69.05;34.85;;;;;;;7.32;100.00;99722.04;2285077;77;21068;-58
2022/11/26 10:22:26;;;;;;;66.47;34.10;;;;;;;7.16;100.00;99731.29;2270965;78;21049;-59
2022/11/26 10:25:26;;;;;;;62.33;31.85;;;;;;;7.06;100.00;99738.09;2280733;77;21087;-58
2022/11/26 10:28:27;;;;;;;64.55;32.50;;;;;;;6.87;100.00;99743.05;2267986;77;21466;-59
2022/11/26 10:31:27;;;;;;;60.80;32.90;;;;;;;6.66;100.00;99743.24;2270452;77;21486;-58
2022/11/26 10:34:28;;;;;;;70.37;37.30;;;;;;;6.30;100.00;99738.69;2265587;77;21004;-59
2022/11/26 10:37:28;;;;;;;68.50;34.40;;;;;;;6.13;100.00;99741.77;2251786;77;20980;-59
2022/11/26 10:40:29;;;;;;;70.83;35.88;;;;;;;6.18;100.00;99742.04;2286085;77;21008;-58
2022/11/26 10:43:31;;;;;;;68.47;36.23;;;;;;;6.35;100.00;99735.48;2283906;77;21124;-58
2022/11/26 10:46:31;;;;;;;71.30;36.70;;;;;;;6.57;100.00;99737.86;2284254;77;21066;-59
2022/11/26 10:49:32;;;;;;;78.00;41.20;;;;;;;6.70;100.00;99731.83;2287824;77;21017;-58
2022/11/26 10:52:32;;;;;;;69.87;38.05;;;;;;;6.82;100.00;99726.67;2286454;77;20992;-58
2022/11/26 10:55:32;;;;;;;85.45;42.98;;;;;;;7.00;100.00;99723.11;2279684;77;20976;-58
2022/11/26 10:58:33;;;;;;;83.72;45.30;;;;;;;6.97;100.00;99733.61;2286283;78;21011;-59
2022/11/26 11:01:34;;;;;;;90.83;46.75;;;;;;;6.80;100.00;99738.92;2286266;77;21068;-58
2022/11/26 11:04:35;;;;;;;95.25;48.60;;;;;;;6.62;100.00;99739.02;2264521;77;21037;-58
2022/11/26 11:07:36;;;;;;;91.47;47.58;;;;;;;6.46;100.00;99743.84;2278985;77;21032;-59
2022/11/26 11:10:37;;;;;;;94.00;46.95;;;;;;;6.38;100.00;99738.02;2260011;78;21138;-58
2022/11/26 11:13:38;;;;;;;89.22;43.73;;;;;;;6.33;100.00;99743.80;2269989;77;21043;-58
2022/11/26 11:16:39;;;;;;;95.65;43.58;;;;;;;6.16;100.00;99747.75;2283851;77;20989;-58
2022/11/26 11:19:39;;;;;;;92.33;43.15;;;;;;;6.00;100.00;99746.45;2285232;77;21498;-59
2022/11/26 11:22:40;;;;;;;89.80;41.25;;;;;;;5.99;100.00;99754.73;2273193;77;20976;-58
2022/11/26 11:25:40;;;;;;;87.08;41.35;;;;;;;5.93;100.00;99754.84;2264148;77;21012;-59
2022/11/26 11:28:42;;;;;;;86.92;38.00;;;;;;;5.87;100.00;99760.22;2254895;77;21037;-59
2022/11/26 11:31:42;;;;;;;88.47;41.85;;;;;;;5.70;100.00;99755.03;2277760;77;20988;-59
2022/11/26 11:34:43;;;;;;;90.38;40.15;;;;;;;5.78;100.00;99757.42;2285294;77;21476;-59
2022/11/26 11:37:44;;;;;;;89.72;39.30;;;;;;;5.79;100.00;99760.87;2269347;77;21475;-58
2022/11/26 11:40:44;;;;;;;90.40;39.58;;;;;;;6.04;100.00;99760.64;2263290;77;21000;-59
2022/11/26 11:43:45;;;;;;;97.72;44.33;;;;;;;5.78;100.00;99763.92;2276896;77;21008;-58
2022/11/26 11:46:45;;;;;;;95.12;45.50;;;;;;;5.92;100.00;99753.58;2278078;77;21139;-58
2022/11/26 11:49:45;;;;;;;102.35;46.28;;;;;;;6.18;100.00;99755.06;2288325;77;21000;-58
2022/11/26 11:52:46;;;;;;;106.00;47.93;;;;;;;6.23;100.00;99753.20;2287005;77;21476;-58
2022/11/26 11:55:46;;;;;;;103.47;46.88;;;;;;;6.35;100.00;99753.29;2281674;77;21526;-58
2022/11/26 11:58:47;;;;;;;120.00;51.50;;;;;;;6.31;100.00;99756.03;2282588;77;20976;-59
2022/11/26 12:01:47;;;;;;;115.12;50.92;;;;;;;6.46;100.00;99760.78;2273199;77;21005;-58
2022/11/26 12:04:48;;;;;;;107.07;49.73;;;;;;;6.54;100.00;99758.81;2284364;78;20965;-58
2022/11/26 12:07:48;;;;;;;105.55;47.55;;;;;;;6.52;100.00;99763.23;2276210;77;21025;-58
2022/11/26 12:10:49;;;;;;;99.07;42.13;;;;;;;6.56;100.00;99762.67;2282769;77;21048;-60
2022/11/26 12:13:49;;;;;;;104.43;40.52;;;;;;;6.44;100.00;99776.05;2275800;77;21506;-58
2022/11/26 12:16:50;;;;;;;110.83;40.05;;;;;;;6.19;100.00;99777.63;2288205;77;21049;-58
2022/11/26 12:19:50;;;;;;;94.97;38.20;;;;;;;5.90;100.00;99774.03;2282374;77;20966;-58
2022/11/26 12:22:51;;;;;;;94.85;37.33;;;;;;;5.66;100.00;99775.95;2288666;77;21035;-59
2022/11/26 12:25:51;;;;;;;89.40;35.90;;;;;;;5.53;100.00;99780.19;2272524;77;21028;-58
2022/11/26 12:28:52;;;;;;;82.10;33.95;;;;;;;5.42;100.00;99780.05;2256502;78;20949;-58
2022/11/26 12:31:52;;;;;;;76.40;32.28;;;;;;;5.32;100.00;99780.25;2287062;77;21507;-59
2022/11/26 12:34:53;;;;;;;74.05;32.23;;;;;;;5.36;100.00;99775.84;2283462;77;20980;-58
2022/11/26 12:37:53;;;;;;;78.92;31.97;;;;;;;5.49;100.00;99777.70;2263688;77;21061;-58
2022/11/26 12:40:54;;;;;;;95.90;34.90;;;;;;;5.54;100.00;99782.33;2277079;77;20972;-58
2022/11/26 12:43:54;;;;;;;102.62;33.45;;;;;;;5.68;100.00;99780.69;2282204;77;21031;-58
2022/11/26 12:46:54;;;;;;;110.10;33.35;;;;;;;5.66;100.00;99774.65;2251641;78;21021;-59
2022/11/26 12:49:55;;;;;;;89.37;30.50;;;;;;;5.53;100.00;99781.91;2246184;78;21079;-58
2022/11/26 12:52:55;;;;;;;87.70;33.18;;;;;;;5.51;100.00;99780.65;2251972;78;21519;-58
2022/11/26 12:55:56;;;;;;;88.30;31.77;;;;;;;5.38;100.00;99778.80;2256914;77;21008;-58
2022/11/26 12:58:56;;;;;;;80.90;29.90;;;;;;;5.12;100.00;99789.83;2273924;77;20981;-58
2022/11/26 13:01:57;;;;;;;80.05;30.17;;;;;;;5.12;100.00;99789.83;2276438;77;21076;-59
2022/11/26 13:04:58;;;;;;;72.27;30.50;;;;;;;5.25;100.00;99791.70;2283606;78;21004;-58
2022/11/26 13:07:58;;;;;;;84.25;32.28;;;;;;;5.35;100.00;99794.48;2270016;77;21056;-59
2022/11/26 13:10:59;;;;;;;93.05;30.75;;;;;;;5.17;100.00;99798.40;2284647;78;21544;-58
2022/11/26 13:13:59;;;;;;;96.67;30.97;;;;;;;5.09;100.00;99799.47;2276526;77;20965;-59
2022/11/26 13:17:00;;;;;;;81.00;31.45;;;;;;;5.03;100.00;99798.70;2284887;77;20976;-59
2022/11/26 13:20:00;;;;;;;80.80;30.40;;;;;;;5.02;100.00;99799.58;2285382;77;21004;-58
2022/11/26 13:23:01;;;;;;;76.50;31.30;;;;;;;5.05;100.00;99795.22;2262475;78;20980;-58
2022/11/26 13:26:01;;;;;;;77.30;31.10;;;;;;;5.10;100.00;99792.05;2273614;78;21012;-58
2022/11/26 13:29:02;;;;;;;75.03;29.90;;;;;;;5.11;100.00;99792.47;2282031;77;21471;-59
2022/11/26 13:32:02;;;;;;;76.77;30.77;;;;;;;5.13;100.00;99795.45;2274138;78;20963;-59
2022/11/26 13:35:03;;;;;;;81.70;31.80;;;;;;;5.18;100.00;99799.23;2269402;77;20972;-59
2022/11/26 13:38:04;;;;;;;82.50;31.15;;;;;;;5.25;100.00;99802.11;2259579;78;20992;-59
2022/11/26 13:41:04;;;;;;;93.85;32.20;;;;;;;5.07;100.00;99795.60;2286367;77;21056;-58
2022/11/26 13:44:05;;;;;;;79.67;31.55;;;;;;;5.02;100.00;99800.05;2285438;77;21533;-59
2022/11/26 13:47:06;;;;;;;75.60;30.03;;;;;;;4.94;100.00;99807.15;2281563;77;20969;-58